Time;durP1;ratioP1;P1;durP2;ratioP2;P2;SDS_P1;SDS_P2;PMS_P1;PMS_P2;Temp;Humidity;BMP_temperature;BMP_pressure;BME280_temperature;BME280_humidity;BME280_pressure;Samples;Min_cycle;Max_cycle;Signal;HPM_P1;HPM_P2
2022/10/08 00:00:57;;;;;;;8.98;5.60;;;;;;;7.52;100.00;101360.88;1691247;83;21460;-55
2022/10/08 00:03:27;;;;;;;10.45;6.40;;;;;;;7.48;100.00;101361.63;1690411;83;21031;-55
2022/10/08 00:06:00;;;;;;;11.97;6.62;;;;;;;7.43;100.00;101362.52;1691406;84;21151;-55
2022/10/08 00:08:28;;;;;;;8.55;5.05;;;;;;;7.40;100.00;101356.30;1690772;84;21007;-55
2022/10/08 00:10:59;;;;;;;8.73;4.83;;;;;;;7.40;100.00;101364.08;1691415;84;21030;-55
2022/10/08 00:13:28;;;;;;;8.28;4.62;;;;;;;7.33;100.00;101360.38;1691474;84;21003;-55
2022/10/08 00:15:55;;;;;;;8.60;6.10;;;;;;;7.29;100.00;101352.53;1691301;84;21015;-56
2022/10/08 00:18:24;;;;;;;9.75;5.47;;;;;;;7.24;100.00;101347.75;1690956;84;21143;-55
2022/10/08 00:20:52;;;;;;;9.55;5.00;;;;;;;7.24;100.00;101347.75;1691226;84;21097;-55
2022/10/08 00:23:19;;;;;;;8.80;5.03;;;;;;;7.31;100.00;101346.71;1691155;84;21619;-56
2022/10/08 00:25:46;;;;;;;10.10;6.05;;;;;;;7.36;100.00;101347.62;1691229;84;21079;-55
2022/10/08 00:28:14;;;;;;;10.63;5.10;;;;;;;7.34;100.00;101350.34;1691311;84;21023;-57
2022/10/08 00:30:43;;;;;;;8.60;5.03;;;;;;;7.38;100.00;101342.63;1691649;84;22370;-55
2022/10/08 00:33:10;;;;;;;6.55;4.80;;;;;;;7.45;100.00;101335.13;1691388;84;20932;-56
2022/10/08 00:35:38;;;;;;;9.88;5.70;;;;;;;7.48;100.00;101344.76;1691559;84;21411;-55
2022/10/08 00:38:06;;;;;;;9.60;4.97;;;;;;;7.54;100.00;101350.71;1691756;84;21537;-56
2022/10/08 00:40:43;;;;;;;7.28;4.37;;;;;;;7.63;100.00;101341.77;1691056;84;21597;-55
2022/10/08 00:43:15;;;;;;;7.75;4.55;;;;;;;7.68;100.00;101345.57;1691534;84;21215;-57
2022/10/08 00:45:43;;;;;;;6.08;4.28;;;;;;;7.73;100.00;101342.59;1691333;84;20998;-56
2022/10/08 00:48:17;;;;;;;16.53;4.83;;;;;;;7.82;100.00;101336.55;1691429;84;20920;-56
2022/10/08 00:50:45;;;;;;;6.75;4.58;;;;;;;7.92;100.00;101334.77;1690988;84;21787;-55
2022/10/08 00:53:12;;;;;;;6.83;3.83;;;;;;;8.05;100.00;101331.87;1691886;84;21038;-56
2022/10/08 00:55:40;;;;;;;11.12;5.40;;;;;;;8.18;100.00;101332.40;1691759;84;21613;-55
2022/10/08 00:58:17;;;;;;;7.10;4.15;;;;;;;8.28;100.00;101340.15;1691671;84;20963;-57
2022/10/08 01:00:47;;;;;;;10.30;4.20;;;;;;;8.32;100.00;101332.41;1691651;83;21015;-55
2022/10/08 01:03:14;;;;;;;8.90;5.10;;;;;;;8.33;100.00;101331.92;1691488;83;21963;-55
2022/10/08 01:06:07;;;;;;;7.17;4.62;;;;;;;8.37;100.00;101334.58;1690981;83;21602;-55
2022/10/08 01:09:04;;;;;;;6.53;4.00;;;;;;;8.36;100.00;101338.95;1690702;82;21307;-55
2022/10/08 01:12:04;;;;;;;7.00;4.45;;;;;;;8.37;100.00;101335.45;1690475;82;21267;-63
2022/10/08 01:14:55;;;;;;;8.43;4.10;;;;;;;8.37;100.00;101331.55;1691548;84;23242;-55
2022/10/08 01:17:46;;;;;;;8.50;4.60;;;;;;;8.34;100.00;101331.80;1691487;83;21030;-56
2022/10/08 01:20:36;;;;;;;7.77;4.70;;;;;;;8.37;100.00;101331.98;1691672;82;21061;-56
2022/10/08 01:23:39;;;;;;;7.90;4.90;;;;;;;8.38;100.00;101332.37;1691392;83;21444;-56
2022/10/08 01:26:41;;;;;;;7.03;4.00;;;;;;;8.33;100.00;101332.73;1690645;83;21028;-56
2022/10/08 01:29:21;;;;;;;8.07;4.13;;;;;;;8.28;100.00;101324.56;1691305;83;20976;-55
2022/10/08 01:31:56;;;;;;;8.27;4.87;;;;;;;8.20;100.00;101324.45;1671492;84;21350;-55
2022/10/08 01:34:39;;;;;;;7.90;4.40;;;;;;;8.18;100.00;101329.80;1691403;83;21281;-56
2022/10/08 01:37:11;;;;;;;7.25;3.95;;;;;;;8.14;100.00;101330.20;1675810;82;21240;-58
2022/10/08 01:39:38;;;;;;;8.23;3.97;;;;;;;8.12;100.00;101328.23;1691130;84;20951;-56
2022/10/08 01:42:06;;;;;;;7.00;5.10;;;;;;;8.08;100.00;101333.38;1691294;84;21119;-55
2022/10/08 01:44:40;;;;;;;8.43;4.25;;;;;;;8.07;100.00;101333.02;1669678;84;21635;-57
2022/10/08 01:47:10;;;;;;;7.90;4.50;;;;;;;8.05;100.00;101333.17;1691149;82;21118;-58
2022/10/08 01:49:52;;;;;;;6.72;4.40;;;;;;;8.02;100.00;101338.16;1691398;83;21657;-56
2022/10/08 01:52:28;;;;;;;7.37;4.10;;;;;;;7.99;100.00;101344.10;1691369;84;21002;-56
2022/10/08 01:55:02;;;;;;;8.50;4.50;;;;;;;7.91;100.00;101343.50;1690822;83;21075;-58
2022/10/08 01:57:30;;;;;;;7.35;4.35;;;;;;;7.78;100.00;101342.98;1691426;83;20967;-56
2022/10/08 02:00:05;;;;;;;7.87;5.00;;;;;;;7.78;100.00;101342.50;1691470;83;21022;-56
2022/10/08 02:02:35;;;;;;;6.65;5.00;;;;;;;7.78;100.00;101346.88;1691146;84;21814;-55
2022/10/08 02:05:03;;;;;;;7.67;4.83;;;;;;;7.71;100.00;101350.48;1690609;81;20955;-56
2022/10/08 02:07:36;;;;;;;9.75;5.22;;;;;;;7.72;100.00;101346.12;1691480;84;21505;-56
2022/10/08 02:10:09;;;;;;;;;;;;;;;7.69;100.00;101349.83;1693475;84;21023;-56
2022/10/08 02:12:38;;;;;;;7.53;4.58;;;;;;;7.66;100.00;101349.28;1691063;84;20139;-56
2022/10/08 02:15:24;;;;;;;6.70;4.33;;;;;;;7.58;100.00;101356.90;1691452;84;20991;-56
2022/10/08 02:18:17;;;;;;;6.20;4.87;;;;;;;7.49;100.00;101359.36;1647029;84;21087;-56
2022/10/08 02:20:59;;;;;;;8.60;5.00;;;;;;;7.41;100.00;101351.44;1659443;84;21039;-55
2022/10/08 02:23:30;;;;;;;;;;;;;;;7.33;100.00;101349.19;1693968;84;21078;-56
2022/10/08 02:26:03;;;;;;;7.45;5.37;;;;;;;7.23;100.00;101349.98;1691696;84;20162;-56
2022/10/08 02:28:42;;;;;;;8.55;5.03;;;;;;;7.15;100.00;101351.13;1674770;85;21426;-59
2022/10/08 02:31:29;;;;;;;8.45;5.35;;;;;;;7.11;100.00;101361.91;1674795;85;20970;-58
2022/10/08 02:34:30;;;;;;;7.53;5.05;;;;;;;7.02;100.00;101357.87;1674834;85;21305;-56
2022/10/08 02:37:16;;;;;;;9.23;4.97;;;;;;;6.95;100.00;101359.34;1674088;84;21000;-57
2022/10/08 02:39:48;;;;;;;7.53;4.58;;;;;;;6.84;100.00;101358.15;1666641;85;21103;-55
2022/10/08 02:42:21;;;;;;;8.48;4.50;;;;;;;6.78;100.00;101359.51;1674671;85;21249;-56
2022/10/08 02:45:15;;;;;;;9.70;5.25;;;;;;;6.72;100.00;101364.39;1674328;85;20912;-57
2022/10/08 02:47:43;;;;;;;7.50;4.67;;;;;;;6.63;100.00;101374.22;1674580;84;21390;-55
2022/10/08 02:50:13;;;;;;;7.22;4.78;;;;;;;6.46;100.00;101368.70;1674460;85;21095;-56
2022/10/08 02:52:41;;;;;;;7.37;4.95;;;;;;;6.33;100.00;101371.50;1649388;85;21565;-56
2022/10/08 02:55:20;;;;;;;8.65;4.75;;;;;;;6.31;100.00;101371.28;1674771;84;21296;-56
2022/10/08 02:58:04;;;;;;;6.47;4.95;;;;;;;6.32;100.00;101365.14;1649296;85;21032;-56
2022/10/08 03:00:36;;;;;;;7.65;5.15;;;;;;;6.29;100.00;101363.65;1674887;85;21742;-55
2022/10/08 03:03:12;;;;;;;10.30;5.05;;;;;;;6.31;100.00;101366.09;1674089;85;21501;-56
2022/10/08 03:05:41;;;;;;;6.95;4.35;;;;;;;6.32;100.00;101363.84;1673926;83;21091;-62
2022/10/08 03:08:11;;;;;;;8.53;5.17;;;;;;;6.35;100.00;101362.30;1673615;85;21364;-59
2022/10/08 03:10:40;;;;;;;6.50;4.92;;;;;;;6.34;100.00;101358.08;1674628;85;21019;-57
2022/10/08 03:13:07;;;;;;;8.25;5.08;;;;;;;6.37;100.00;101359.60;1674545;85;20921;-58
2022/10/08 03:15:36;;;;;;;7.87;5.15;;;;;;;6.38;100.00;101357.34;1674306;85;21044;-57
2022/10/08 03:18:07;;;;;;;8.45;5.53;;;;;;;6.40;100.00;101360.61;1674276;84;20916;-57
2022/10/08 03:20:43;;;;;;;8.20;4.75;;;;;;;6.43;100.00;101356.00;1674645;85;21280;-58
2022/10/08 03:23:11;;;;;;;7.28;4.62;;;;;;;6.44;100.00;101348.59;1674704;85;21023;-57
2022/10/08 03:25:38;;;;;;;10.65;6.10;;;;;;;6.45;100.00;101354.59;1674526;85;21028;-67
2022/10/08 03:28:05;;;;;;;7.00;5.00;;;;;;;6.41;100.00;101359.21;1674173;84;20984;-56
2022/10/08 03:30:33;;;;;;;6.80;4.60;;;;;;;6.39;100.00;101357.69;1674739;85;21974;-56
2022/10/08 03:33:01;;;;;;;7.78;4.97;;;;;;;6.37;100.00;101359.13;1649604;85;20921;-56
2022/10/08 03:35:29;;;;;;;6.17;4.25;;;;;;;6.27;100.00;101352.58;1674496;85;21574;-56
2022/10/08 03:37:56;;;;;;;7.62;4.95;;;;;;;6.27;100.00;101360.35;1673967;85;21089;-65
2022/10/08 03:40:23;;;;;;;7.75;5.00;;;;;;;6.23;100.00;101359.45;1674621;85;21475;-56
2022/10/08 03:42:50;;;;;;;8.60;4.83;;;;;;;6.20;100.00;101365.69;1674594;85;21072;-56
2022/10/08 03:45:18;;;;;;;5.72;4.22;;;;;;;6.19;100.00;101365.35;1674664;85;21205;-56
2022/10/08 03:47:51;;;;;;;7.55;4.53;;;;;;;6.20;100.00;101359.70;1674388;85;21028;-57
2022/10/08 03:50:20;;;;;;;8.00;5.03;;;;;;;6.27;100.00;101356.95;1674243;85;21034;-56
2022/10/08 03:52:47;;;;;;;7.35;4.35;;;;;;;6.41;100.00;101355.33;1674082;85;21026;-56
2022/10/08 03:55:14;;;;;;;7.60;5.25;;;;;;;6.62;100.00;101355.75;1674666;85;21028;-57
2022/10/08 03:57:42;;;;;;;6.03;4.15;;;;;;;6.87;100.00;101351.41;1674419;85;21323;-58
2022/10/08 04:00:11;;;;;;;6.47;4.30;;;;;;;7.18;100.00;101353.46;1674558;85;21024;-57
2022/10/08 04:02:38;;;;;;;8.40;4.67;;;;;;;7.43;100.00;101348.73;1674647;85;21080;-55
2022/10/08 04:05:07;;;;;;;9.60;4.75;;;;;;;7.81;100.00;101349.20;1674581;83;21019;-56
2022/10/08 04:07:34;;;;;;;6.20;4.28;;;;;;;8.19;100.00;101350.09;1674706;85;21035;-56
2022/10/08 04:10:02;;;;;;;7.40;4.27;;;;;;;8.57;100.00;101354.87;1674185;84;21123;-64
2022/10/08 04:12:30;;;;;;;7.90;4.00;;;;;;;8.94;100.00;101350.45;1674843;84;21403;-56
2022/10/08 04:14:57;;;;;;;6.77;4.00;;;;;;;9.32;100.00;101347.27;1674685;85;21226;-59
2022/10/08 04:17:26;;;;;;;5.70;3.80;;;;;;;9.71;100.00;101350.38;1674536;85;21230;-56
2022/10/08 04:19:56;;;;;;;7.07;3.40;;;;;;;10.23;100.00;101349.61;1675097;85;21786;-56
2022/10/08 04:22:23;;;;;;;6.43;4.17;;;;;;;10.77;100.00;101341.09;1674453;84;21849;-56
2022/10/08 04:24:51;;;;;;;6.80;4.13;;;;;;;11.88;100.00;101342.91;1674899;85;21401;-56
2022/10/08 04:27:19;;;;;;;6.13;3.80;;;;;;;12.35;100.00;101339.56;1675014;84;21911;-57
2022/10/08 04:29:48;;;;;;;6.87;4.13;;;;;;;12.35;100.00;101339.56;1674609;85;21756;-58
2022/10/08 04:32:15;;;;;;;5.63;4.10;;;;;;;12.67;100.00;101341.73;1674798;85;22219;-64
2022/10/08 04:34:43;;;;;;;6.17;3.83;;;;;;;12.68;100.00;101342.55;1674662;85;21916;-58
2022/10/08 04:37:10;;;;;;;8.60;3.90;;;;;;;12.38;100.00;101336.59;1674554;85;21763;-57
2022/10/08 04:39:37;;;;;;;7.00;4.33;;;;;;;12.16;100.00;101334.72;1674808;85;21035;-57
2022/10/08 04:42:04;;;;;;;7.47;4.53;;;;;;;12.16;100.00;101334.72;1674688;85;21136;-59
2022/10/08 04:44:33;;;;;;;7.33;4.07;;;;;;;11.98;100.00;101340.12;1674345;85;21596;-64
2022/10/08 04:47:00;;;;;;;6.50;4.30;;;;;;;11.89;100.00;101331.49;1674985;85;21666;-57
2022/10/08 04:49:28;;;;;;;7.20;4.73;;;;;;;11.85;100.00;101332.77;1674527;85;21814;-56
2022/10/08 04:51:56;;;;;;;6.90;4.70;;;;;;;11.86;100.00;101328.39;1675036;84;21042;-56
2022/10/08 04:54:24;;;;;;;8.23;5.03;;;;;;;11.81;100.00;101322.30;1674841;85;21737;-56
2022/10/08 04:56:51;;;;;;;7.73;4.60;;;;;;;11.75;100.00;101326.08;1674524;85;21018;-58
2022/10/08 04:59:18;;;;;;;8.60;4.60;;;;;;;11.80;100.00;101326.39;1674447;85;22515;-57
2022/10/08 05:01:45;;;;;;;8.13;5.03;;;;;;;11.83;100.00;101326.91;1674968;84;21584;-56
2022/10/08 05:04:14;;;;;;;7.73;5.03;;;;;;;11.87;100.00;101330.83;1674941;85;21091;-55
2022/10/08 05:06:41;;;;;;;7.93;5.00;;;;;;;11.96;100.00;101322.97;1685016;84;21034;-55
2022/10/08 05:09:08;;;;;;;7.83;5.30;;;;;;;11.96;100.00;101322.97;1686028;84;21090;-57
2022/10/08 05:11:35;;;;;;;9.00;5.40;;;;;;;12.03;100.00;101322.14;1686395;84;22651;-56
2022/10/08 05:14:03;;;;;;;6.17;4.07;;;;;;;12.11;100.00;101325.23;1686516;84;21723;-57
2022/10/08 05:16:30;;;;;;;8.80;5.13;;;;;;;12.23;100.00;101332.23;1686623;84;21705;-55
2022/10/08 05:18:57;;;;;;;8.93;5.90;;;;;;;12.28;100.00;101326.84;1686386;84;21729;-65
2022/10/08 05:21:27;;;;;;;7.93;5.00;;;;;;;12.28;100.00;101326.84;1686203;84;20971;-56
2022/10/08 05:23:57;;;;;;;6.50;4.37;;;;;;;12.37;100.00;101330.23;1686192;85;21823;-55
2022/10/08 05:26:27;;;;;;;7.63;4.90;;;;;;;12.45;100.00;101337.23;1686263;84;21740;-56
2022/10/08 05:28:56;;;;;;;;;;;;;;;12.51;100.00;101337.38;1688991;84;21665;-55
2022/10/08 05:31:24;;;;;;;6.60;4.63;;;;;;;12.61;100.00;101338.47;1685715;85;20178;-57
2022/10/08 05:33:52;;;;;;;8.07;4.83;;;;;;;12.73;100.00;101353.30;1686320;85;21158;-56
2022/10/08 05:36:27;;;;;;;7.63;5.40;;;;;;;12.73;100.00;101353.30;1686382;84;21411;-56
2022/10/08 05:38:57;;;;;;;7.87;5.20;;;;;;;12.86;100.00;101358.32;1686301;85;21706;-56
2022/10/08 05:41:26;;;;;;;10.00;5.73;;;;;;;13.08;100.00;101345.46;1685855;84;20967;-64
2022/10/08 05:43:55;;;;;;;9.43;4.87;;;;;;;13.27;100.00;101348.16;1686541;85;21374;-57
2022/10/08 05:46:24;;;;;;;9.90;4.90;;;;;;;13.50;100.00;101349.47;1686583;85;21016;-56
2022/10/08 05:48:52;;;;;;;7.10;4.67;;;;;;;14.12;100.00;101347.92;1686165;85;21197;-56
2022/10/08 05:51:20;;;;;;;7.07;4.43;;;;;;;14.83;100.00;101343.86;1685962;84;20944;-62
2022/10/08 05:53:49;;;;;;;7.10;4.67;;;;;;;15.39;100.00;101337.17;1686300;85;21054;-56
2022/10/08 05:56:18;;;;;;;6.77;4.70;;;;;;;16.01;100.00;101339.11;1686356;84;20955;-56
2022/10/08 05:58:46;;;;;;;7.10;5.47;;;;;;;16.63;100.00;101345.30;1686482;85;21024;-56
2022/10/08 06:01:22;;;;;;;6.97;4.60;;;;;;;17.08;100.00;101330.69;1685857;84;22091;-56
2022/10/08 06:03:58;;;;;;;7.10;4.73;;;;;;;17.47;100.00;101331.78;1685993;85;21349;-55
2022/10/08 06:06:25;;;;;;;6.03;4.13;;;;;;;17.98;100.00;101327.20;1685182;83;21007;-56
2022/10/08 06:08:54;;;;;;;7.77;4.70;;;;;;;18.23;100.00;101330.81;1685893;85;21007;-57
2022/10/08 06:11:21;;;;;;;7.33;4.30;;;;;;;18.58;100.00;101322.56;1686617;85;21085;-55
2022/10/08 06:13:55;;;;;;;5.40;4.23;;;;;;;19.07;100.00;101325.59;1686570;84;21011;-55
2022/10/08 06:16:23;;;;;;;6.17;4.00;;;;;;;19.37;100.00;101327.12;1685274;84;21572;-62
2022/10/08 06:18:50;;;;;;;6.87;3.90;;;;;;;19.68;100.00;101324.97;1686058;84;21015;-55
2022/10/08 06:21:21;;;;;;;6.93;4.17;;;;;;;19.69;100.00;101331.86;1685950;84;21051;-54
2022/10/08 06:23:53;;;;;;;5.67;4.53;;;;;;;19.59;100.00;101319.63;1686256;85;21042;-55
2022/10/08 06:26:21;;;;;;;7.50;5.53;;;;;;;19.73;100.00;101322.98;1686427;85;21128;-57
2022/10/08 06:28:49;;;;;;;5.27;4.20;;;;;;;20.09;100.00;101327.02;1685828;85;21078;-55
2022/10/08 06:31:16;;;;;;;6.87;4.73;;;;;;;20.24;100.00;101321.87;1685892;84;21475;-55
2022/10/08 06:33:43;;;;;;;6.67;4.27;;;;;;;20.24;100.00;101325.33;1686368;84;21063;-55
2022/10/08 06:36:22;;;;;;;6.97;4.70;;;;;;;20.31;100.00;101326.58;1686462;84;21505;-54
2022/10/08 06:38:56;;;;;;;5.97;4.67;;;;;;;20.26;100.00;101327.22;1686137;85;21757;-57
2022/10/08 06:41:24;;;;;;;7.83;4.77;;;;;;;20.26;100.00;101331.72;1686408;84;21143;-55
2022/10/08 06:43:50;;;;;;;7.23;5.00;;;;;;;20.22;100.00;101333.19;1686540;84;21046;-55
2022/10/08 06:46:18;;;;;;;7.43;4.70;;;;;;;20.28;100.00;101322.53;1686116;84;20984;-55
2022/10/08 06:48:45;;;;;;;7.43;5.50;;;;;;;20.40;100.00;101325.24;1686269;84;21076;-55
2022/10/08 06:51:15;;;;;;;6.73;5.00;;;;;;;20.41;100.00;101330.83;1685773;84;22509;-59
2022/10/08 06:53:42;;;;;;;6.03;4.80;;;;;;;20.36;100.00;101327.52;1686456;85;22445;-56
2022/10/08 06:56:13;;;;;;;5.40;4.63;;;;;;;20.23;100.00;101326.36;1686375;84;21021;-54
2022/10/08 06:58:42;;;;;;;6.13;4.43;;;;;;;19.93;100.00;101320.98;1686340;85;21004;-55
2022/10/08 07:01:19;;;;;;;8.30;4.87;;;;;;;19.74;100.00;101316.69;1685876;85;21505;-54
2022/10/08 07:03:55;;;;;;;6.20;4.70;;;;;;;19.68;100.00;101318.35;1681261;84;22268;-54
2022/10/08 07:06:22;;;;;;;5.67;4.70;;;;;;;19.63;100.00;101318.20;1681260;83;21593;-54
2022/10/08 07:08:54;;;;;;;6.30;5.13;;;;;;;19.83;100.00;101312.72;1674070;85;21047;-56
2022/10/08 07:11:21;;;;;;;9.03;6.10;;;;;;;19.62;100.00;101308.63;1674782;85;21083;-55
2022/10/08 07:13:48;;;;;;;8.47;5.77;;;;;;;19.41;100.00;101313.77;1674919;85;20948;-57
2022/10/08 07:16:20;;;;;;;6.40;4.60;;;;;;;19.55;100.00;101312.64;1674971;85;21502;-54
2022/10/08 07:18:50;;;;;;;5.03;3.90;;;;;;;19.69;100.00;101304.89;1674285;85;20956;-57
2022/10/08 07:21:19;;;;;;;6.37;5.10;;;;;;;19.87;100.00;101305.45;1674546;85;21417;-54
2022/10/08 07:23:45;;;;;;;6.23;4.53;;;;;;;19.97;100.00;101303.63;1674649;85;21008;-54
2022/10/08 07:26:16;;;;;;;8.37;4.30;;;;;;;20.29;100.00;101296.86;1674318;85;21584;-54
2022/10/08 07:28:59;;;;;;;6.20;4.60;;;;;;;20.47;100.00;101304.79;1629791;88;21836;-57
2022/10/08 07:31:30;;;;;;;6.03;4.83;;;;;;;20.51;100.00;101296.72;1634773;86;21119;-55
2022/10/08 07:34:01;;;;;;;11.38;4.78;;;;;;;20.58;100.00;101295.31;1675004;84;20960;-55
2022/10/08 07:36:28;;;;;;;7.47;5.17;;;;;;;20.86;100.00;101294.20;1639756;86;21577;-64
2022/10/08 07:39:00;;;;;;;5.37;4.17;;;;;;;21.23;100.00;101286.62;1639519;86;21069;-55
2022/10/08 07:41:28;;;;;;;6.70;5.03;;;;;;;21.53;95.71;101287.90;1658087;86;21134;-55
2022/10/08 07:44:00;;;;;;;7.17;5.53;;;;;;;21.51;94.30;101295.27;1658524;86;21035;-55
2022/10/08 07:46:29;;;;;;;7.23;5.50;;;;;;;21.48;91.34;101291.73;1658363;86;21111;-55
2022/10/08 07:49:00;;;;;;;6.53;5.00;;;;;;;21.40;93.92;101288.11;1629788;88;21020;-55
2022/10/08 07:51:28;;;;;;;6.45;4.72;;;;;;;21.47;94.70;101281.66;1658404;86;20944;-55
2022/10/08 07:53:55;;;;;;;6.67;4.93;;;;;;;21.53;94.70;101282.07;1658223;86;21244;-56
2022/10/08 07:56:23;;;;;;;6.27;4.40;;;;;;;21.66;97.18;101281.55;1657964;86;20965;-55
2022/10/08 07:58:50;;;;;;;7.03;4.67;;;;;;;21.84;94.54;101274.78;1629904;88;21411;-64
2022/10/08 08:01:21;;;;;;;6.13;3.80;;;;;;;22.01;93.50;101272.20;1657831;86;21033;-55
2022/10/08 08:04:04;;;;;;;9.23;4.80;;;;;;;22.13;87.52;101268.22;1658038;86;20975;-55
2022/10/08 08:06:35;;;;;;;5.20;4.20;;;;;;;22.07;87.42;101272.08;1658465;84;22140;-60
2022/10/08 08:09:03;;;;;;;7.90;4.92;;;;;;;21.95;90.02;101267.32;1659969;86;21078;-55
2022/10/08 08:11:30;;;;;;;6.07;4.63;;;;;;;21.85;89.31;101276.39;1693436;84;21007;-55
2022/10/08 08:13:57;;;;;;;6.60;4.20;;;;;;;21.84;91.15;101268.95;1693732;84;21579;-55
2022/10/08 08:16:26;;;;;;;5.50;4.37;;;;;;;21.95;90.60;101269.17;1693655;84;20967;-54
2022/10/08 08:18:56;;;;;;;5.53;3.90;;;;;;;21.94;88.74;101276.34;1693316;84;21667;-54
2022/10/08 08:21:30;;;;;;;5.90;4.20;;;;;;;21.98;88.93;101265.53;1693385;84;21508;-55
2022/10/08 08:24:00;;;;;;;5.80;4.37;;;;;;;22.12;89.05;101270.04;1693063;84;21006;-55
2022/10/08 08:26:31;;;;;;;5.63;3.73;;;;;;;22.19;89.33;101271.27;1692991;84;21002;-58
2022/10/08 08:29:04;;;;;;;4.97;3.50;;;;;;;22.11;87.25;101263.13;1693267;84;21548;-57
2022/10/08 08:31:33;;;;;;;4.87;3.90;;;;;;;22.19;84.17;101254.81;1693502;84;21281;-55
2022/10/08 08:34:04;;;;;;;6.47;4.10;;;;;;;22.08;83.73;101243.16;1693254;84;20908;-55
2022/10/08 08:36:34;;;;;;;6.85;4.25;;;;;;;21.99;89.14;101244.57;1693099;84;21030;-56
2022/10/08 08:39:01;;;;;;;6.53;4.40;;;;;;;22.05;92.58;101238.33;1693254;84;21475;-56
2022/10/08 08:42:03;;;;;;;5.53;4.17;;;;;;;22.42;89.37;101239.84;1693193;84;21520;-55
2022/10/08 08:44:38;;;;;;;7.00;4.60;;;;;;;22.48;87.62;101233.06;1692088;84;21180;-56
2022/10/08 08:47:22;;;;;;;6.33;4.40;;;;;;;22.78;82.18;101242.62;1677383;85;21097;-57
2022/10/08 08:49:53;;;;;;;6.83;4.50;;;;;;;22.68;80.26;101235.79;1678854;85;21074;-66
2022/10/08 08:52:26;;;;;;;7.30;5.20;;;;;;;22.51;79.60;101237.91;1678539;85;21693;-56
2022/10/08 08:54:53;;;;;;;6.45;4.80;;;;;;;22.27;84.75;101235.84;1679342;85;21009;-55
2022/10/08 08:57:56;;;;;;;7.00;4.70;;;;;;;22.24;89.53;101227.05;1678863;84;21963;-55
2022/10/08 09:00:38;;;;;;;5.57;3.90;;;;;;;22.44;89.28;101224.48;1679250;85;21059;-55
2022/10/08 09:03:19;;;;;;;6.47;4.07;;;;;;;22.66;80.77;101221.95;1678946;84;20976;-59
2022/10/08 09:05:55;;;;;;;4.97;3.23;;;;;;;22.50;82.98;101212.39;1679005;85;21881;-55
2022/10/08 09:08:44;;;;;;;5.20;3.50;;;;;;;22.43;85.76;101214.38;1675128;83;21135;-55
2022/10/08 09:11:17;;;;;;;4.83;2.70;;;;;;;22.47;82.34;101218.70;1674420;85;21003;-55
2022/10/08 09:14:11;;;;;;;6.10;3.37;;;;;;;22.42;77.99;101211.42;1674887;84;21024;-55
2022/10/08 09:16:39;;;;;;;5.53;3.20;;;;;;;22.28;77.56;101207.47;1674533;85;21518;-58
2022/10/08 09:19:08;;;;;;;5.20;3.23;;;;;;;22.26;84.42;101199.71;1675005;85;21565;-58
2022/10/08 09:21:36;;;;;;;3.30;2.50;;;;;;;22.38;77.05;101204.97;1674989;84;21000;-55
2022/10/08 09:24:04;;;;;;;4.17;2.80;;;;;;;22.42;73.42;101198.66;1674684;85;21150;-60
2022/10/08 09:26:33;;;;;;;3.83;2.67;;;;;;;22.36;72.76;101212.39;1674479;85;20865;-55
2022/10/08 09:29:04;;;;;;;5.83;2.80;;;;;;;22.24;71.47;101201.81;1675067;85;21636;-55
2022/10/08 09:31:39;;;;;;;4.43;2.63;;;;;;;22.19;71.67;101203.03;1675019;84;21506;-55
2022/10/08 09:34:16;;;;;;;4.10;3.00;;;;;;;22.14;73.14;101202.14;1670946;85;21000;-56
2022/10/08 09:36:51;;;;;;;4.40;3.10;;;;;;;22.16;73.95;101201.37;1674842;85;21608;-55
2022/10/08 09:39:24;;;;;;;4.37;2.97;;;;;;;22.22;72.94;101197.25;1650340;85;20989;-55
2022/10/08 09:42:12;;;;;;;5.87;2.80;;;;;;;22.09;71.33;101195.66;1674895;85;21478;-57
2022/10/08 09:44:47;;;;;;;4.57;2.40;;;;;;;21.84;70.17;101189.32;1674615;85;20972;-55
2022/10/08 09:47:16;;;;;;;6.97;2.83;;;;;;;21.63;76.83;101200.58;1674602;84;21132;-55
2022/10/08 09:49:48;;;;;;;4.73;3.00;;;;;;;21.48;76.27;101193.09;1674351;84;21209;-64
2022/10/08 09:52:27;;;;;;;5.40;2.70;;;;;;;21.31;78.18;101189.49;1674398;85;21077;-56
2022/10/08 09:55:16;;;;;;;4.28;2.47;;;;;;;21.32;80.30;101183.14;1674705;85;21565;-55
2022/10/08 09:57:52;;;;;;;4.50;3.40;;;;;;;21.24;81.04;101169.71;1674917;85;21012;-57
2022/10/08 10:00:30;;;;;;;4.37;2.70;;;;;;;21.32;83.12;101172.53;1674904;85;20996;-57
2022/10/08 10:02:58;;;;;;;3.93;2.57;;;;;;;21.42;79.76;101163.51;1674732;85;21268;-57
2022/10/08 10:05:29;;;;;;;5.30;3.50;;;;;;;21.67;83.59;101161.09;1674547;84;22240;-57
2022/10/08 10:07:56;;;;;;;4.53;2.97;;;;;;;21.75;79.92;101163.40;1659156;84;21565;-57
2022/10/08 10:10:29;;;;;;;4.47;2.87;;;;;;;21.65;77.35;101163.19;1664689;86;21492;-57
2022/10/08 10:13:15;;;;;;;3.80;2.77;;;;;;;21.61;80.53;101167.62;1685460;84;21007;-57
2022/10/08 10:15:59;;;;;;;4.53;2.63;;;;;;;21.73;79.12;101149.02;1686432;85;20995;-58
2022/10/08 10:18:52;;;;;;;7.47;3.77;;;;;;;21.76;74.70;101163.67;1661804;84;20960;-59
2022/10/08 10:21:42;;;;;;;4.13;2.90;;;;;;;21.90;73.72;101153.08;1604599;87;21092;-58
2022/10/08 10:24:44;;;;;;;5.50;2.87;;;;;;;21.96;74.16;101140.17;1603593;88;21506;-55
2022/10/08 10:27:24;;;;;;;3.63;2.90;;;;;;;22.21;77.51;101136.42;1665247;85;21770;-65
2022/10/08 10:30:05;;;;;;;4.17;2.67;;;;;;;22.31;70.63;101145.37;1686398;85;21520;-56
2022/10/08 10:32:57;;;;;;;;;;;;;;;22.16;69.30;101141.62;1688522;85;21040;-56
2022/10/08 10:35:27;;;;;;;3.93;2.60;;;;;;;22.08;72.20;101131.63;1686393;85;20177;-57
2022/10/08 10:38:18;;;;;;;3.70;2.80;;;;;;;22.11;72.86;101121.87;1686469;85;21102;-57
2022/10/08 10:41:19;;;;;;;4.33;3.10;;;;;;;22.17;73.18;101116.17;1660078;84;21561;-57
2022/10/08 10:44:08;;;;;;;4.67;3.00;;;;;;;22.27;72.63;101121.64;1686617;84;21237;-57
2022/10/08 10:46:51;;;;;;;6.77;3.00;;;;;;;22.27;68.98;101111.54;1686455;85;20959;-57
2022/10/08 10:49:25;;;;;;;5.30;2.80;;;;;;;22.23;68.30;101119.70;1686135;84;21011;-67
2022/10/08 10:52:34;;;;;;;4.10;2.90;;;;;;;22.17;71.05;101106.88;1686304;84;21393;-57
2022/10/08 10:55:34;;;;;;;3.50;2.50;;;;;;;22.26;70.56;101104.09;1685547;85;21150;-59
2022/10/08 10:58:27;;;;;;;4.03;2.80;;;;;;;22.35;69.62;101093.91;1685967;84;21095;-57
2022/10/08 11:01:31;;;;;;;3.60;2.80;;;;;;;22.39;68.58;101088.89;1685430;84;21066;-57
2022/10/08 11:04:08;;;;;;;4.03;2.50;;;;;;;22.38;68.69;101084.63;1685447;84;20920;-58
2022/10/08 11:06:53;;;;;;;5.30;2.73;;;;;;;22.52;71.04;101069.45;1685906;85;21330;-56
2022/10/08 11:09:41;;;;;;;4.40;3.10;;;;;;;22.51;64.71;101074.50;1686353;84;21015;-56
2022/10/08 11:12:18;;;;;;;3.87;2.87;;;;;;;22.35;65.23;101071.33;1686531;85;22114;-56
2022/10/08 11:15:02;;;;;;;4.70;2.80;;;;;;;22.16;65.19;101064.61;1686438;84;21532;-57
2022/10/08 11:17:52;;;;;;;4.43;2.73;;;;;;;22.05;68.19;101065.75;1686120;84;21441;-57
2022/10/08 11:20:25;;;;;;;4.47;2.80;;;;;;;22.10;66.11;101049.90;1686532;84;21011;-56
2022/10/08 11:23:00;;;;;;;5.43;3.23;;;;;;;21.98;64.87;101064.30;1685728;84;21085;-58
2022/10/08 11:25:54;;;;;;;5.00;2.57;;;;;;;21.87;66.45;101063.30;1686243;85;21151;-56
2022/10/08 11:28:55;;;;;;;4.77;2.40;;;;;;;21.85;68.36;101061.39;1685413;84;21035;-67
2022/10/08 11:31:44;;;;;;;4.95;2.85;;;;;;;21.81;70.40;101064.23;1661701;84;20999;-56
2022/10/08 11:34:27;;;;;;;7.53;2.70;;;;;;;21.84;68.83;101059.79;1686259;84;21338;-58
2022/10/08 11:37:09;;;;;;;5.03;2.77;;;;;;;21.82;66.90;101060.53;1686338;85;20951;-56
2022/10/08 11:39:42;;;;;;;;;;;;;;;21.75;66.41;101050.09;1688437;85;21845;-56
2022/10/08 11:42:40;;;;;;;3.77;2.40;;;;;;;21.68;66.18;101055.25;1686305;85;20151;-56
2022/10/08 11:45:26;;;;;;;4.27;2.60;;;;;;;21.52;65.95;101056.30;1685824;85;21596;-58
2022/10/08 11:48:20;;;;;;;4.73;2.87;;;;;;;21.43;68.28;101051.06;1660381;84;21133;-57
2022/10/08 11:50:47;;;;;;;3.50;2.47;;;;;;;21.39;68.75;101049.92;1640143;86;21051;-57
2022/10/08 11:53:19;;;;;;;4.10;3.13;;;;;;;21.40;67.78;101044.89;1664810;86;22127;-57
2022/10/08 11:55:56;;;;;;;4.80;2.23;;;;;;;21.37;65.78;101046.19;1664621;86;20951;-57